createdAt,value
2019-04-06T00:01:08.168Z,13.10
2019-04-06T00:03:37.613Z,14.40
2019-04-06T00:06:06.983Z,14.97
2019-04-06T00:08:36.455Z,13.67
2019-04-06T00:11:05.904Z,14.90
2019-04-06T00:13:35.365Z,14.00
2019-04-06T00:16:04.854Z,14.50
2019-04-06T00:18:34.822Z,13.50
2019-04-06T00:21:04.210Z,14.73
2019-04-06T00:23:34.236Z,14.73
2019-04-06T00:26:03.674Z,13.37
2019-04-06T00:28:33.098Z,13.53
2019-04-06T00:31:12.595Z,13.00
2019-04-06T00:33:42.016Z,14.23
2019-04-06T00:36:11.488Z,14.03
2019-04-06T00:38:41.039Z,13.73
2019-04-06T00:41:10.386Z,13.67
2019-04-06T00:43:39.763Z,13.97
2019-04-06T00:46:09.152Z,14.73
2019-04-06T00:48:38.595Z,13.77
2019-04-06T00:51:08.370Z,13.13
2019-04-06T00:53:37.813Z,13.67
2019-04-06T00:56:07.216Z,13.90
2019-04-06T00:58:36.576Z,12.33
2019-04-06T01:01:05.996Z,15.10
2019-04-06T01:03:35.401Z,13.43
2019-04-06T01:06:04.814Z,12.97
2019-04-06T01:08:34.186Z,14.27
2019-04-06T01:11:04.731Z,13.47
2019-04-06T01:13:34.108Z,14.70
2019-04-06T01:16:03.485Z,14.30
2019-04-06T01:18:33.086Z,14.80
2019-04-06T01:21:02.493Z,15.47
2019-04-06T01:23:31.883Z,15.17
2019-04-06T01:26:07.169Z,14.57
2019-04-06T01:28:32.311Z,14.97
2019-04-06T01:31:01.731Z,15.83
2019-04-06T01:33:31.197Z,15.97
2019-04-06T01:36:00.597Z,15.37
2019-04-06T01:38:29.965Z,15.97
2019-04-06T01:40:59.318Z,17.03
2019-04-06T01:43:28.670Z,16.40
2019-04-06T01:45:58.043Z,16.70
2019-04-06T01:48:27.521Z,16.97
2019-04-06T01:50:56.972Z,17.07
2019-04-06T01:53:26.333Z,16.87
2019-04-06T01:55:55.835Z,17.40
2019-04-06T01:58:25.252Z,17.63
2019-04-06T02:01:13.666Z,17.80
2019-04-06T02:03:43.158Z,18.23
2019-04-06T02:06:12.568Z,17.23
2019-04-06T02:08:41.935Z,18.07
2019-04-06T02:11:11.310Z,18.73
2019-04-06T02:13:40.670Z,18.20
2019-04-06T02:16:10.130Z,17.67
2019-04-06T02:18:39.567Z,16.67
2019-04-06T02:21:09.081Z,16.00
2019-04-06T02:23:38.454Z,16.77
2019-04-06T02:26:07.843Z,16.03
2019-04-06T02:28:37.208Z,15.60
2019-04-06T02:31:31.624Z,15.53
2019-04-06T02:34:32.034Z,15.87
2019-04-06T02:37:16.709Z,16.03
2019-04-06T02:40:14.013Z,16.43
2019-04-06T02:42:47.477Z,16.37
2019-04-06T02:45:16.899Z,14.90
2019-04-06T02:47:46.298Z,15.73
2019-04-06T02:50:15.731Z,16.17
2019-04-06T02:52:45.082Z,15.00
2019-04-06T02:55:14.517Z,17.23
2019-04-06T02:57:43.866Z,15.83
2019-04-06T03:00:13.599Z,15.97
2019-04-06T03:02:43.008Z,15.70
2019-04-06T03:05:12.562Z,16.27
2019-04-06T03:07:41.943Z,16.27
2019-04-06T03:10:11.516Z,15.10
2019-04-06T03:12:40.902Z,16.60
2019-04-06T03:15:10.469Z,16.47
2019-04-06T03:17:40.106Z,19.00
2019-04-06T03:20:09.754Z,18.70
2019-04-06T03:22:39.272Z,18.43
2019-04-06T03:25:09.068Z,19.20
2019-04-06T03:27:38.668Z,17.07
2019-04-06T03:30:09.319Z,17.83
2019-04-06T03:32:38.974Z,16.83
2019-04-06T03:35:08.941Z,18.40
2019-04-06T03:37:38.547Z,17.70
2019-04-06T03:40:08.575Z,17.07
2019-04-06T03:42:37.994Z,17.83
2019-04-06T03:45:08.418Z,17.20
2019-04-06T03:47:37.814Z,19.70
2019-04-06T03:50:07.621Z,18.57
2019-04-06T03:52:37.139Z,18.20
2019-04-06T03:55:07.915Z,18.03
2019-04-06T03:57:37.422Z,19.13
2019-04-06T04:00:07.441Z,19.60
2019-04-06T04:02:36.856Z,19.67
2019-04-06T04:05:06.740Z,19.70
2019-04-06T04:07:36.171Z,19.13
2019-04-06T04:10:06.764Z,20.47
2019-04-06T04:12:36.234Z,20.27
2019-04-06T04:15:06.416Z,19.73
2019-04-06T04:17:36.010Z,21.10
2019-04-06T04:20:06.645Z,21.13
2019-04-06T04:22:36.128Z,20.80
2019-04-06T04:25:05.951Z,21.47
2019-04-06T04:27:35.473Z,20.87
2019-04-06T04:30:05.168Z,22.17
2019-04-06T04:32:34.587Z,19.83
2019-04-06T04:35:04.035Z,22.10
2019-04-06T04:37:33.409Z,20.00
2019-04-06T04:40:02.900Z,21.17
2019-04-06T04:42:32.371Z,20.70
2019-04-06T04:45:01.835Z,21.90
2019-04-06T04:47:31.250Z,20.50
2019-04-06T04:50:00.630Z,20.57
2019-04-06T04:52:30.183Z,19.80
2019-04-06T04:54:59.553Z,21.33
2019-04-06T04:57:39.598Z,21.53
2019-04-06T05:00:00.336Z,21.83
2019-04-06T05:02:29.783Z,22.67
2019-04-06T05:04:59.275Z,19.00
2019-04-06T05:07:28.643Z,21.97
2019-04-06T05:09:58.059Z,20.97
2019-04-06T05:12:27.469Z,24.87
2019-04-06T05:15:18.826Z,28.23
2019-04-06T05:17:48.459Z,23.60
2019-04-06T05:20:17.845Z,26.63
2019-04-06T05:22:47.248Z,17.57
2019-04-06T05:25:16.673Z,20.30
2019-04-06T05:27:52.403Z,21.60
2019-04-06T05:30:17.729Z,21.80
2019-04-06T05:32:47.204Z,21.53
2019-04-06T05:35:16.628Z,20.87
2019-04-06T05:37:49.210Z,19.40
2019-04-06T05:40:18.717Z,23.53
2019-04-06T05:42:48.186Z,21.47
2019-04-06T05:45:17.604Z,23.53
2019-04-06T05:47:47.015Z,20.63
2019-04-06T05:50:16.631Z,19.13
2019-04-06T05:52:46.053Z,21.83
2019-04-06T05:55:15.517Z,23.43
2019-04-06T05:57:44.933Z,20.80
2019-04-06T06:00:14.593Z,23.07
2019-04-06T06:02:44.225Z,20.03
2019-04-06T06:05:13.881Z,22.73
2019-04-06T06:07:43.457Z,21.90
2019-04-06T06:10:12.962Z,18.03
2019-04-06T06:12:42.362Z,24.57
2019-04-06T06:15:11.967Z,19.67
2019-04-06T06:17:41.420Z,19.57
2019-04-06T06:20:10.920Z,19.60
2019-04-06T06:22:40.339Z,22.63
2019-04-06T06:25:10.830Z,19.97
2019-04-06T06:27:40.196Z,21.27
2019-04-06T06:30:10.261Z,19.70
2019-04-06T06:32:40.265Z,21.47
2019-04-06T06:35:09.776Z,20.60
2019-04-06T06:37:39.165Z,22.27
2019-04-06T06:40:09.055Z,17.70
2019-04-06T06:42:38.429Z,18.23
2019-04-06T06:45:08.044Z,19.27
2019-04-06T06:47:37.425Z,18.23
2019-04-06T06:50:07.862Z,20.00
2019-04-06T06:52:37.302Z,19.80
2019-04-06T06:55:07.415Z,20.23
2019-04-06T06:57:36.806Z,20.73
2019-04-06T07:00:07.713Z,18.93
2019-04-06T07:02:37.157Z,18.17
2019-04-06T07:05:07.473Z,19.20
2019-04-06T07:07:36.842Z,18.77
2019-04-06T07:10:07.611Z,19.63
2019-04-06T07:12:37.049Z,19.77
2019-04-06T07:15:07.263Z,20.37
2019-04-06T07:17:36.764Z,19.00
2019-04-06T07:20:07.511Z,20.03
2019-04-06T07:22:36.898Z,18.53
2019-04-06T07:25:06.869Z,18.43
2019-04-06T07:27:36.387Z,19.83
2019-04-06T07:30:06.686Z,18.77
2019-04-06T07:32:36.068Z,19.07
2019-04-06T07:35:05.691Z,17.53
2019-04-06T07:37:35.517Z,19.20
2019-04-06T07:40:05.942Z,19.50
2019-04-06T07:42:35.533Z,19.53
2019-04-06T07:45:05.632Z,19.50
2019-04-06T07:47:35.094Z,17.23
2019-04-06T07:50:04.785Z,21.10
2019-04-06T07:52:34.192Z,19.70
2019-04-06T07:55:03.603Z,18.40
2019-04-06T07:57:33.256Z,18.90
2019-04-06T08:00:02.712Z,18.27
2019-04-06T08:02:32.112Z,18.90
2019-04-06T08:05:01.538Z,19.10
2019-04-06T08:07:31.194Z,18.37
2019-04-06T08:10:00.545Z,18.77
2019-04-06T08:12:30.068Z,18.93
2019-04-06T08:14:59.461Z,18.37
2019-04-06T08:17:29.082Z,19.23
2019-04-06T08:19:58.548Z,17.50
2019-04-06T08:22:27.909Z,20.20
2019-04-06T08:24:57.346Z,18.83
2019-04-06T08:27:26.714Z,17.50
2019-04-06T08:29:56.075Z,18.13
2019-04-06T08:32:25.606Z,19.03
2019-04-06T08:34:54.975Z,18.40
2019-04-06T08:37:24.485Z,18.30
2019-04-06T08:39:53.976Z,17.87
2019-04-06T08:42:23.464Z,18.27
2019-04-06T08:44:52.883Z,18.87
2019-04-06T08:47:22.320Z,18.07
2019-04-06T08:49:51.701Z,18.27
2019-04-06T08:52:21.115Z,19.63
2019-04-06T08:54:51.676Z,20.60
2019-04-06T08:57:22.556Z,19.13
2019-04-06T08:59:52.373Z,19.10
2019-04-06T09:02:21.817Z,18.60
2019-04-06T09:04:51.307Z,19.40
2019-04-06T09:07:20.931Z,18.57
2019-04-06T09:09:50.422Z,17.77
2019-04-06T09:12:19.917Z,18.77
2019-04-06T09:14:49.812Z,19.83
2019-04-06T09:17:19.401Z,17.13
2019-04-06T09:19:49.091Z,19.93
2019-04-06T09:22:18.599Z,18.73
2019-04-06T09:24:49.068Z,18.63
2019-04-06T09:27:18.810Z,18.47
2019-04-06T09:29:48.322Z,17.80
2019-04-06T09:32:17.737Z,15.80
2019-04-06T09:34:47.157Z,16.87
2019-04-06T09:37:16.675Z,17.10
2019-04-06T09:39:46.087Z,16.80
2019-04-06T09:42:15.534Z,17.20
2019-04-06T09:45:06.694Z,17.57
2019-04-06T09:47:58.034Z,16.70
2019-04-06T09:50:45.297Z,16.73
2019-04-06T09:53:33.508Z,16.97
2019-04-06T09:56:19.892Z,17.33
2019-04-06T09:59:17.608Z,18.83
2019-04-06T10:02:04.958Z,18.70
2019-04-06T10:04:47.911Z,18.13
2019-04-06T10:07:48.407Z,18.17
2019-04-06T10:10:36.204Z,17.90
2019-04-06T10:13:31.181Z,16.90
2019-04-06T10:16:22.747Z,17.03
2019-04-06T10:19:14.006Z,17.13
2019-04-06T10:22:02.189Z,16.67
2019-04-06T10:24:51.455Z,17.37
2019-04-06T10:27:38.640Z,16.80
2019-04-06T10:30:37.100Z,16.87
2019-04-06T10:33:19.607Z,15.67
2019-04-06T10:36:07.900Z,15.63
2019-04-06T10:38:56.185Z,15.27
2019-04-06T10:41:43.284Z,15.83
2019-04-06T10:44:31.693Z,15.77
2019-04-06T10:47:22.318Z,15.50
2019-04-06T10:49:57.254Z,15.73
2019-04-06T10:53:04.069Z,15.47
2019-04-06T10:55:42.812Z,14.93
2019-04-06T10:58:20.604Z,15.50
2019-04-06T11:01:07.855Z,15.53
2019-04-06T11:04:02.474Z,15.93
2019-04-06T11:06:46.934Z,16.27
2019-04-06T11:09:33.822Z,16.40
2019-04-06T11:12:22.744Z,16.40
2019-04-06T11:15:06.501Z,17.63
2019-04-06T11:17:46.342Z,17.07
2019-04-06T11:20:25.525Z,16.30
2019-04-06T11:23:12.788Z,16.27
2019-04-06T11:25:51.620Z,15.73
2019-04-06T11:28:35.444Z,15.90
2019-04-06T11:31:23.443Z,16.00
2019-04-06T11:34:01.776Z,15.77
2019-04-06T11:37:08.640Z,15.40
2019-04-06T11:39:52.150Z,14.77
2019-04-06T11:42:58.651Z,14.40
2019-04-06T11:45:34.131Z,15.03
2019-04-06T11:48:24.898Z,14.30
2019-04-06T11:51:14.724Z,14.90
2019-04-06T11:53:59.314Z,14.33
2019-04-06T11:56:53.842Z,16.30
2019-04-06T11:59:30.917Z,17.35
2019-04-06T12:02:18.294Z,16.48
2019-04-06T12:05:00.302Z,14.75
2019-04-06T12:07:39.831Z,15.58
2019-04-06T12:10:23.858Z,15.65
2019-04-06T12:13:21.351Z,15.17
2019-04-06T12:16:08.591Z,15.07
2019-04-06T12:19:09.576Z,14.73
2019-04-06T12:22:00.666Z,14.17
2019-04-06T12:25:04.041Z,14.63
2019-04-06T12:27:50.944Z,13.97
2019-04-06T12:30:45.665Z,13.90
2019-04-06T12:33:36.950Z,14.93
2019-04-06T12:36:21.219Z,14.13
2019-04-06T12:39:12.336Z,13.90
2019-04-06T12:41:59.531Z,14.37
2019-04-06T12:44:54.093Z,14.93
2019-04-06T12:47:48.325Z,15.27
2019-04-06T12:50:36.573Z,12.93
2019-04-06T12:53:37.421Z,12.80
2019-04-06T12:56:37.886Z,11.37
2019-04-06T12:59:27.302Z,12.20
2019-04-06T13:02:14.378Z,13.90
2019-04-06T13:05:08.763Z,13.90
2019-04-06T13:07:56.104Z,14.87
2019-04-06T13:10:50.949Z,13.10
2019-04-06T13:13:52.081Z,12.33
2019-04-06T13:16:40.410Z,11.43
2019-04-06T13:19:28.690Z,12.27
2019-04-06T13:22:15.965Z,12.50
2019-04-06T13:25:13.594Z,13.53
2019-04-06T13:28:00.649Z,11.80
2019-04-06T13:31:01.321Z,10.57
2019-04-06T13:33:41.080Z,11.60
2019-04-06T13:36:21.065Z,11.90
2019-04-06T13:39:12.634Z,11.27
2019-04-06T13:42:03.793Z,12.77
2019-04-06T13:44:52.463Z,11.87
2019-04-06T13:47:59.314Z,11.93
2019-04-06T13:50:45.431Z,12.20
2019-04-06T13:53:32.744Z,13.37
2019-04-06T13:56:24.162Z,13.40
2019-04-06T13:59:06.849Z,13.37
2019-04-06T14:01:55.429Z,14.90
2019-04-06T14:04:32.395Z,13.40
2019-04-06T14:07:20.715Z,14.27
2019-04-06T14:10:13.035Z,13.70
2019-04-06T14:13:07.451Z,13.07
2019-04-06T14:15:54.955Z,12.47
2019-04-06T14:18:39.670Z,13.43
2019-04-06T14:21:31.151Z,11.17
2019-04-06T14:24:34.942Z,13.90
2019-04-06T14:27:26.189Z,12.83
2019-04-06T14:30:13.999Z,14.00
2019-04-06T14:33:02.283Z,13.10
2019-04-06T14:35:49.552Z,13.00
2019-04-06T14:38:53.240Z,13.27
2019-04-06T14:41:40.186Z,13.13
2019-04-06T14:44:25.705Z,12.63
2019-04-06T14:47:10.867Z,13.67
2019-04-06T14:50:08.762Z,14.50
2019-04-06T14:52:56.052Z,13.50
2019-04-06T14:55:59.921Z,14.20
2019-04-06T14:58:51.072Z,14.07
2019-04-06T15:01:55.900Z,13.90
2019-04-06T15:04:31.364Z,15.50
2019-04-06T15:07:13.192Z,14.83
2019-04-06T15:10:00.923Z,14.30
2019-04-06T15:12:59.104Z,13.37
2019-04-06T15:15:54.957Z,13.23
2019-04-06T15:18:52.469Z,12.83
2019-04-06T15:21:56.186Z,13.67
2019-04-06T15:24:37.863Z,13.33
2019-04-06T15:27:20.728Z,13.03
2019-04-06T15:30:03.394Z,15.47
2019-04-06T15:32:52.207Z,16.37
2019-04-06T15:35:47.493Z,14.10
2019-04-06T15:38:39.419Z,15.53
2019-04-06T15:41:28.354Z,14.33
2019-04-06T15:44:16.624Z,17.83
2019-04-06T15:46:54.658Z,16.80
2019-04-06T15:49:47.303Z,18.70
2019-04-06T15:52:26.597Z,18.53
2019-04-06T15:55:07.624Z,17.03
2019-04-06T15:57:59.054Z,15.40
2019-04-06T16:00:46.137Z,15.70
2019-04-06T16:03:40.322Z,16.57
2019-04-06T16:06:35.190Z,17.10
2019-04-06T16:09:30.557Z,16.83
2019-04-06T16:12:28.173Z,17.93
2019-04-06T16:15:19.425Z,16.27
2019-04-06T16:18:19.689Z,16.57
2019-04-06T16:21:07.608Z,20.50
2019-04-06T16:24:03.465Z,17.43
2019-04-06T16:26:48.791Z,16.33
2019-04-06T16:29:36.179Z,19.27
2019-04-06T16:32:18.838Z,24.77
2019-04-06T16:35:12.985Z,21.03
2019-04-06T16:37:53.572Z,18.60
2019-04-06T16:40:51.310Z,19.93
2019-04-06T16:43:49.046Z,16.93
2019-04-06T16:46:40.554Z,17.33
2019-04-06T16:49:21.931Z,16.27
2019-04-06T16:52:19.212Z,16.83
2019-04-06T16:55:05.517Z,15.63
2019-04-06T16:57:45.448Z,17.73
2019-04-06T17:00:32.969Z,16.90
2019-04-06T17:03:22.570Z,18.20
2019-04-06T17:06:10.968Z,17.37
2019-04-06T17:09:05.090Z,16.10
2019-04-06T17:11:52.103Z,17.30
2019-04-06T17:14:46.195Z,18.17
2019-04-06T17:17:29.886Z,17.80
2019-04-06T17:20:17.916Z,17.27
2019-04-06T17:23:03.911Z,19.00
2019-04-06T17:25:55.760Z,16.10
2019-04-06T17:28:44.425Z,18.07
2019-04-06T17:31:33.531Z,17.50
2019-04-06T17:34:12.000Z,17.40
2019-04-06T17:36:50.852Z,19.97
2019-04-06T17:39:42.319Z,18.60
2019-04-06T17:42:29.700Z,16.43
2019-04-06T17:45:17.044Z,17.47
2019-04-06T17:48:18.399Z,15.93
2019-04-06T17:51:06.695Z,18.60
2019-04-06T17:53:54.125Z,18.07
2019-04-06T17:56:58.107Z,15.53
2019-04-06T17:59:44.839Z,15.50
2019-04-06T18:02:32.268Z,15.97
2019-04-06T18:05:19.668Z,16.97
2019-04-06T18:08:06.361Z,15.40
2019-04-06T18:11:01.711Z,18.13
2019-04-06T18:13:50.008Z,18.27
2019-04-06T18:16:21.991Z,17.97
2019-04-06T18:18:51.487Z,17.33
2019-04-06T18:21:20.919Z,18.97
2019-04-06T18:23:50.663Z,17.43
2019-04-06T18:26:20.207Z,16.73
2019-04-06T18:28:49.602Z,16.93
2019-04-06T18:31:47.300Z,16.27
2019-04-06T18:34:17.322Z,13.73
2019-04-06T18:37:09.054Z,15.70
2019-04-06T18:39:39.261Z,15.97
2019-04-06T18:42:08.669Z,18.37
2019-04-06T18:44:38.514Z,17.37
2019-04-06T18:47:08.549Z,19.50
2019-04-06T18:49:40.264Z,18.07
2019-04-06T18:52:09.697Z,19.03
2019-04-06T18:54:39.653Z,21.40
2019-04-06T18:57:09.102Z,20.97
2019-04-06T18:59:41.316Z,23.17
2019-04-06T19:02:10.994Z,22.93
2019-04-06T19:04:40.623Z,24.60
2019-04-06T19:07:10.906Z,27.00
2019-04-06T19:09:40.672Z,26.80
2019-04-06T19:12:10.129Z,26.20
2019-04-06T19:14:39.607Z,24.30
2019-04-06T19:17:09.094Z,24.93
2019-04-06T19:19:38.999Z,23.70
2019-04-06T19:22:09.268Z,23.97
2019-04-06T19:24:38.874Z,23.47
2019-04-06T19:27:08.257Z,23.87
2019-04-06T19:29:38.307Z,25.10
2019-04-06T19:32:07.805Z,22.83
2019-04-06T19:34:37.232Z,21.73
2019-04-06T19:37:08.738Z,21.83
2019-04-06T19:39:37.815Z,22.70
2019-04-06T19:42:07.293Z,22.97
2019-04-06T19:44:37.221Z,22.13
2019-04-06T19:47:06.693Z,19.53
2019-04-06T19:49:36.156Z,20.53
2019-04-06T19:52:07.615Z,20.23
2019-04-06T19:54:37.012Z,20.13
2019-04-06T19:57:06.386Z,23.03
2019-04-06T19:59:35.815Z,23.13
2019-04-06T20:02:05.447Z,21.33
2019-04-06T20:04:35.403Z,19.87
2019-04-06T20:07:05.058Z,21.03
2019-04-06T20:09:34.448Z,22.20
2019-04-06T20:12:07.351Z,19.43
2019-04-06T20:14:35.225Z,16.60
2019-04-06T20:17:04.677Z,18.93
2019-04-06T20:19:34.044Z,17.37
2019-04-06T20:22:04.562Z,18.93
2019-04-06T20:24:33.995Z,17.97
2019-04-06T20:27:03.677Z,17.13
2019-04-06T20:29:33.132Z,17.07
2019-04-06T20:32:03.066Z,17.50
2019-04-06T20:34:32.683Z,17.80
2019-04-06T20:37:02.205Z,16.77
2019-04-06T20:39:33.474Z,16.83
2019-04-06T20:42:03.301Z,16.73
2019-04-06T20:44:32.685Z,17.00
2019-04-06T20:47:02.933Z,19.50
2019-04-06T20:49:32.303Z,17.13
2019-04-06T20:52:01.931Z,19.00
2019-04-06T20:54:31.293Z,17.87
2019-04-06T20:57:00.667Z,17.13
2019-04-06T20:59:30.483Z,18.07
2019-04-06T21:02:03.020Z,18.33
2019-04-06T21:04:32.905Z,18.77
2019-04-06T21:07:02.343Z,16.50
2019-04-06T21:09:32.095Z,15.90
2019-04-06T21:12:01.521Z,18.27
2019-04-06T21:14:31.570Z,19.97
2019-04-06T21:17:01.429Z,17.63
2019-04-06T21:19:31.461Z,18.63
2019-04-06T21:22:01.356Z,18.00
2019-04-06T21:24:30.850Z,19.07
2019-04-06T21:27:00.263Z,19.17
2019-04-06T21:29:29.716Z,18.03
2019-04-06T21:31:59.510Z,18.90
2019-04-06T21:34:29.598Z,18.47
2019-04-06T21:36:59.206Z,18.77
2019-04-06T21:39:29.119Z,16.90
2019-04-06T21:41:58.595Z,19.03
2019-04-06T21:44:27.984Z,19.60
2019-04-06T21:46:59.184Z,18.87
2019-04-06T21:49:29.042Z,17.67
2019-04-06T21:51:58.637Z,19.70
2019-04-06T21:54:28.498Z,19.57
2019-04-06T21:56:58.369Z,19.27
2019-04-06T21:59:27.869Z,18.53
2019-04-06T22:01:58.069Z,19.63
2019-04-06T22:04:28.275Z,19.73
2019-04-06T22:06:58.193Z,20.83
2019-04-06T22:09:27.686Z,19.00
2019-04-06T22:11:57.147Z,17.20
2019-04-06T22:14:26.630Z,18.63
2019-04-06T22:16:56.083Z,18.97
2019-04-06T22:19:26.843Z,18.50
2019-04-06T22:21:56.338Z,18.90
2019-04-06T22:24:26.122Z,17.77
2019-04-06T22:26:56.209Z,17.40
2019-04-06T22:29:25.840Z,17.97
2019-04-06T22:31:55.313Z,17.77
2019-04-06T22:34:34.785Z,17.73
2019-04-06T22:36:56.028Z,17.73
2019-04-06T22:39:26.019Z,16.67
2019-04-06T22:41:55.866Z,15.00
2019-04-06T22:44:25.392Z,17.03
2019-04-06T22:46:54.890Z,17.20
2019-04-06T22:49:24.255Z,17.67
2019-04-06T22:51:53.993Z,16.47
2019-04-06T22:54:23.929Z,16.60
2019-04-06T22:56:53.363Z,17.30
2019-04-06T22:59:23.359Z,17.03
2019-04-06T23:01:53.332Z,16.87
2019-04-06T23:04:51.474Z,19.10
2019-04-06T23:07:23.311Z,15.93
2019-04-06T23:09:53.130Z,15.13
2019-04-06T23:12:22.453Z,17.20
2019-04-06T23:14:52.163Z,16.17
2019-04-06T23:17:22.424Z,17.03
2019-04-06T23:19:52.310Z,16.33
2019-04-06T23:22:21.849Z,16.50
2019-04-06T23:24:51.364Z,16.67
2019-04-06T23:27:20.779Z,16.73
2019-04-06T23:29:50.808Z,16.40
2019-04-06T23:32:20.513Z,17.97
2019-04-06T23:34:58.815Z,16.97
2019-04-06T23:37:21.033Z,17.17
2019-04-06T23:39:50.479Z,16.90
2019-04-06T23:42:20.395Z,17.10
2019-04-06T23:44:50.089Z,16.40
2019-04-06T23:47:19.489Z,16.07
2019-04-06T23:49:49.536Z,15.50
2019-04-06T23:52:19.509Z,16.47
2019-04-06T23:54:48.967Z,17.03
2019-04-06T23:57:18.694Z,15.53
2019-04-06T23:59:48.076Z,13.40
